sensor_id;sensor_type;location;lat;lon;timestamp;P1;durP1;ratioP1;P2;durP2;ratioP2
75071;SDS011;63651;55.728;38.022;2023-06-22T00:03:32;12.60;;;10.18;;
75071;SDS011;63651;55.728;38.022;2023-06-22T00:08:33;14.75;;;10.45;;
75071;SDS011;63651;55.728;38.022;2023-06-22T00:13:34;14.85;;;11.25;;
75071;SDS011;63651;55.728;38.022;2023-06-22T00:18:36;17.08;;;13.20;;
75071;SDS011;63651;55.728;38.022;2023-06-22T00:23:37;17.45;;;13.27;;
75071;SDS011;63651;55.728;38.022;2023-06-22T00:28:38;19.95;;;12.75;;
75071;SDS011;63651;55.728;38.022;2023-06-22T00:33:39;23.83;;;16.58;;
75071;SDS011;63651;55.728;38.022;2023-06-22T00:38:40;22.48;;;16.52;;
75071;SDS011;63651;55.728;38.022;2023-06-22T00:43:41;21.10;;;15.40;;
75071;SDS011;63651;55.728;38.022;2023-06-22T00:48:42;22.10;;;15.77;;
75071;SDS011;63651;55.728;38.022;2023-06-22T00:53:44;23.67;;;15.60;;
75071;SDS011;63651;55.728;38.022;2023-06-22T00:58:46;20.33;;;14.55;;
75071;SDS011;63651;55.728;38.022;2023-06-22T01:03:47;21.10;;;15.38;;
75071;SDS011;63651;55.728;38.022;2023-06-22T01:08:51;19.20;;;15.25;;
75071;SDS011;63651;55.728;38.022;2023-06-22T01:13:58;19.95;;;15.15;;
75071;SDS011;63651;55.728;38.022;2023-06-22T01:30:13;20.73;;;16.55;;
75071;SDS011;63651;55.728;38.022;2023-06-22T01:35:16;20.75;;;17.65;;
75071;SDS011;63651;55.728;38.022;2023-06-22T01:40:18;22.55;;;18.88;;
75071;SDS011;63651;55.728;38.022;2023-06-22T01:45:21;20.67;;;18.35;;
75071;SDS011;63651;55.728;38.022;2023-06-22T01:50:22;25.35;;;21.15;;
75071;SDS011;63651;55.728;38.022;2023-06-22T01:55:23;24.52;;;21.70;;
75071;SDS011;63651;55.728;38.022;2023-06-22T02:00:24;25.67;;;20.90;;
75071;SDS011;63651;55.728;38.022;2023-06-22T02:05:34;24.80;;;21.45;;
75071;SDS011;63651;55.728;38.022;2023-06-22T02:10:39;22.52;;;20.08;;
75071;SDS011;63651;55.728;38.022;2023-06-22T02:15:44;22.85;;;20.35;;
75071;SDS011;63651;55.728;38.022;2023-06-22T02:20:46;24.20;;;20.90;;
75071;SDS011;63651;55.728;38.022;2023-06-22T02:25:47;23.05;;;20.30;;
75071;SDS011;63651;55.728;38.022;2023-06-22T02:30:48;22.83;;;20.27;;
75071;SDS011;63651;55.728;38.022;2023-06-22T02:35:49;23.52;;;19.40;;
75071;SDS011;63651;55.728;38.022;2023-06-22T02:40:50;21.08;;;17.52;;
75071;SDS011;63651;55.728;38.022;2023-06-22T02:45:52;22.17;;;18.50;;
75071;SDS011;63651;55.728;38.022;2023-06-22T02:50:53;21.60;;;19.15;;
75071;SDS011;63651;55.728;38.022;2023-06-22T02:55:55;21.85;;;18.40;;
75071;SDS011;63651;55.728;38.022;2023-06-22T03:00:56;19.75;;;17.05;;
75071;SDS011;63651;55.728;38.022;2023-06-22T03:05:57;18.13;;;16.13;;
75071;SDS011;63651;55.728;38.022;2023-06-22T03:10:58;19.58;;;16.17;;
75071;SDS011;63651;55.728;38.022;2023-06-22T03:15:59;19.95;;;15.93;;
75071;SDS011;63651;55.728;38.022;2023-06-22T03:21:00;17.90;;;14.90;;
75071;SDS011;63651;55.728;38.022;2023-06-22T03:26:02;17.48;;;14.07;;
75071;SDS011;63651;55.728;38.022;2023-06-22T03:31:04;16.88;;;14.63;;
75071;SDS011;63651;55.728;38.022;2023-06-22T03:36:07;17.88;;;12.60;;
75071;SDS011;63651;55.728;38.022;2023-06-22T03:41:09;13.25;;;11.93;;
75071;SDS011;63651;55.728;38.022;2023-06-22T03:46:10;15.25;;;11.05;;
75071;SDS011;63651;55.728;38.022;2023-06-22T03:51:11;12.93;;;11.55;;
75071;SDS011;63651;55.728;38.022;2023-06-22T03:56:12;14.55;;;11.60;;
75071;SDS011;63651;55.728;38.022;2023-06-22T04:01:13;16.65;;;11.98;;
75071;SDS011;63651;55.728;38.022;2023-06-22T04:06:14;12.40;;;11.10;;
75071;SDS011;63651;55.728;38.022;2023-06-22T04:11:15;11.40;;;10.18;;
75071;SDS011;63651;55.728;38.022;2023-06-22T04:16:16;12.15;;;9.18;;
75071;SDS011;63651;55.728;38.022;2023-06-22T04:21:17;12.32;;;10.65;;
75071;SDS011;63651;55.728;38.022;2023-06-22T04:26:20;10.93;;;9.68;;
75071;SDS011;63651;55.728;38.022;2023-06-22T04:31:24;12.50;;;10.45;;
75071;SDS011;63651;55.728;38.022;2023-06-22T04:36:33;13.73;;;9.88;;
75071;SDS011;63651;55.728;38.022;2023-06-22T04:41:38;9.38;;;7.88;;
75071;SDS011;63651;55.728;38.022;2023-06-22T04:46:43;11.98;;;8.57;;
75071;SDS011;63651;55.728;38.022;2023-06-22T04:51:44;10.60;;;9.07;;
75071;SDS011;63651;55.728;38.022;2023-06-22T04:56:45;11.57;;;8.63;;
75071;SDS011;63651;55.728;38.022;2023-06-22T05:01:47;11.07;;;8.70;;
75071;SDS011;63651;55.728;38.022;2023-06-22T05:06:48;11.32;;;8.35;;
75071;SDS011;63651;55.728;38.022;2023-06-22T05:11:49;11.68;;;8.75;;
75071;SDS011;63651;55.728;38.022;2023-06-22T05:16:50;10.68;;;7.97;;
75071;SDS011;63651;55.728;38.022;2023-06-22T05:21:52;9.27;;;8.35;;
75071;SDS011;63651;55.728;38.022;2023-06-22T05:26:53;10.70;;;8.73;;
75071;SDS011;63651;55.728;38.022;2023-06-22T05:31:54;9.73;;;7.80;;
75071;SDS011;63651;55.728;38.022;2023-06-22T05:36:55;7.38;;;6.65;;
75071;SDS011;63651;55.728;38.022;2023-06-22T05:41:59;10.50;;;7.65;;
75071;SDS011;63651;55.728;38.022;2023-06-22T05:47:00;9.57;;;7.32;;
75071;SDS011;63651;55.728;38.022;2023-06-22T05:52:01;10.45;;;7.13;;
75071;SDS011;63651;55.728;38.022;2023-06-22T05:57:03;9.48;;;7.38;;
75071;SDS011;63651;55.728;38.022;2023-06-22T06:02:04;8.90;;;7.40;;
75071;SDS011;63651;55.728;38.022;2023-06-22T06:07:07;7.03;;;6.28;;
75071;SDS011;63651;55.728;38.022;2023-06-22T06:12:08;10.95;;;6.43;;
75071;SDS011;63651;55.728;38.022;2023-06-22T06:17:09;8.65;;;6.45;;
75071;SDS011;63651;55.728;38.022;2023-06-22T06:22:29;7.93;;;6.30;;
75071;SDS011;63651;55.728;38.022;2023-06-22T06:27:30;8.43;;;5.68;;
75071;SDS011;63651;55.728;38.022;2023-06-22T06:32:31;9.95;;;6.53;;
75071;SDS011;63651;55.728;38.022;2023-06-22T06:37:35;8.20;;;6.07;;
75071;SDS011;63651;55.728;38.022;2023-06-22T06:42:40;9.52;;;6.00;;
75071;SDS011;63651;55.728;38.022;2023-06-22T06:47:45;7.45;;;5.43;;
75071;SDS011;63651;55.728;38.022;2023-06-22T06:52:47;6.57;;;4.65;;
75071;SDS011;63651;55.728;38.022;2023-06-22T06:57:48;8.85;;;5.45;;
75071;SDS011;63651;55.728;38.022;2023-06-22T07:02:50;7.43;;;5.30;;
75071;SDS011;63651;55.728;38.022;2023-06-22T07:08:10;7.25;;;4.88;;
75071;SDS011;63651;55.728;38.022;2023-06-22T07:13:11;5.82;;;4.45;;
75071;SDS011;63651;55.728;38.022;2023-06-22T07:18:12;7.13;;;4.25;;
75071;SDS011;63651;55.728;38.022;2023-06-22T07:33:52;5.88;;;4.03;;
75071;SDS011;63651;55.728;38.022;2023-06-22T07:38:53;4.90;;;3.63;;
75071;SDS011;63651;55.728;38.022;2023-06-22T07:43:54;4.30;;;3.17;;
75071;SDS011;63651;55.728;38.022;2023-06-22T07:48:56;5.90;;;3.78;;
75071;SDS011;63651;55.728;38.022;2023-06-22T07:53:57;4.15;;;3.75;;
75071;SDS011;63651;55.728;38.022;2023-06-22T07:58:58;4.22;;;3.65;;
75071;SDS011;63651;55.728;38.022;2023-06-22T08:04:01;5.00;;;3.88;;
75071;SDS011;63651;55.728;38.022;2023-06-22T08:09:02;4.57;;;3.70;;
75071;SDS011;63651;55.728;38.022;2023-06-22T08:14:04;4.07;;;3.45;;
75071;SDS011;63651;55.728;38.022;2023-06-22T08:19:05;4.72;;;3.40;;
75071;SDS011;63651;55.728;38.022;2023-06-22T08:24:06;4.68;;;3.42;;
75071;SDS011;63651;55.728;38.022;2023-06-22T08:29:08;4.47;;;3.58;;
75071;SDS011;63651;55.728;38.022;2023-06-22T08:34:09;4.80;;;3.85;;
75071;SDS011;63651;55.728;38.022;2023-06-22T08:39:10;4.75;;;3.80;;
75071;SDS011;63651;55.728;38.022;2023-06-22T08:44:11;7.70;;;3.20;;
75071;SDS011;63651;55.728;38.022;2023-06-22T08:49:12;6.22;;;3.70;;
75071;SDS011;63651;55.728;38.022;2023-06-22T08:54:32;5.65;;;3.55;;
75071;SDS011;63651;55.728;38.022;2023-06-22T08:59:35;6.45;;;3.72;;
75071;SDS011;63651;55.728;38.022;2023-06-22T09:04:36;6.13;;;3.10;;
75071;SDS011;63651;55.728;38.022;2023-06-22T09:09:56;4.28;;;3.47;;
75071;SDS011;63651;55.728;38.022;2023-06-22T09:20:35;5.60;;;3.90;;
75071;SDS011;63651;55.728;38.022;2023-06-22T09:25:55;6.53;;;3.95;;
75071;SDS011;63651;55.728;38.022;2023-06-22T09:30:56;4.35;;;3.83;;
75071;SDS011;63651;55.728;38.022;2023-06-22T09:36:16;5.68;;;4.20;;
75071;SDS011;63651;55.728;38.022;2023-06-22T09:41:17;7.38;;;4.25;;
75071;SDS011;63651;55.728;38.022;2023-06-22T09:46:18;5.35;;;4.18;;
75071;SDS011;63651;55.728;38.022;2023-06-22T09:51:22;5.82;;;4.18;;
75071;SDS011;63651;55.728;38.022;2023-06-22T09:56:24;4.95;;;3.88;;
75071;SDS011;63651;55.728;38.022;2023-06-22T10:01:25;4.35;;;3.60;;
75071;SDS011;63651;55.728;38.022;2023-06-22T10:06:26;5.82;;;3.95;;
75071;SDS011;63651;55.728;38.022;2023-06-22T10:11:27;4.93;;;3.47;;
75071;SDS011;63651;55.728;38.022;2023-06-22T10:16:31;5.57;;;3.85;;
75071;SDS011;63651;55.728;38.022;2023-06-22T10:26:52;4.13;;;3.70;;
75071;SDS011;63651;55.728;38.022;2023-06-22T10:31:53;4.47;;;3.88;;
75071;SDS011;63651;55.728;38.022;2023-06-22T10:37:13;5.45;;;4.20;;
75071;SDS011;63651;55.728;38.022;2023-06-22T10:42:14;5.63;;;4.13;;
75071;SDS011;63651;55.728;38.022;2023-06-22T10:47:15;6.20;;;4.15;;
75071;SDS011;63651;55.728;38.022;2023-06-22T10:52:16;4.40;;;3.95;;
75071;SDS011;63651;55.728;38.022;2023-06-22T10:57:17;4.90;;;4.40;;
75071;SDS011;63651;55.728;38.022;2023-06-22T11:02:37;4.88;;;4.35;;
75071;SDS011;63651;55.728;38.022;2023-06-22T11:12:57;4.45;;;3.40;;
75071;SDS011;63651;55.728;38.022;2023-06-22T11:17:58;5.78;;;3.90;;
75071;SDS011;63651;55.728;38.022;2023-06-22T11:22:59;4.90;;;4.47;;
75071;SDS011;63651;55.728;38.022;2023-06-22T11:28:01;5.13;;;3.90;;
75071;SDS011;63651;55.728;38.022;2023-06-22T11:33:03;4.97;;;4.03;;
75071;SDS011;63651;55.728;38.022;2023-06-22T11:38:04;5.28;;;4.55;;
75071;SDS011;63651;55.728;38.022;2023-06-22T11:43:05;4.65;;;4.20;;
75071;SDS011;63651;55.728;38.022;2023-06-22T11:48:06;5.35;;;4.47;;
75071;SDS011;63651;55.728;38.022;2023-06-22T11:53:10;7.93;;;4.35;;
75071;SDS011;63651;55.728;38.022;2023-06-22T11:58:29;6.00;;;4.28;;
75071;SDS011;63651;55.728;38.022;2023-06-22T12:03:30;5.20;;;4.50;;
75071;SDS011;63651;55.728;38.022;2023-06-22T12:08:31;6.88;;;4.68;;
75071;SDS011;63651;55.728;38.022;2023-06-22T12:13:51;5.65;;;4.25;;
75071;SDS011;63651;55.728;38.022;2023-06-22T12:18:52;6.10;;;4.80;;
75071;SDS011;63651;55.728;38.022;2023-06-22T12:23:53;5.53;;;4.15;;
75071;SDS011;63651;55.728;38.022;2023-06-22T12:28:54;5.53;;;4.88;;
75071;SDS011;63651;55.728;38.022;2023-06-22T12:33:55;4.85;;;4.45;;
75071;SDS011;63651;55.728;38.022;2023-06-22T12:38:56;4.28;;;3.85;;
75071;SDS011;63651;55.728;38.022;2023-06-22T12:43:57;7.65;;;5.03;;
75071;SDS011;63651;55.728;38.022;2023-06-22T12:48:58;7.90;;;4.25;;
75071;SDS011;63651;55.728;38.022;2023-06-22T12:54:00;10.20;;;4.95;;
75071;SDS011;63651;55.728;38.022;2023-06-22T12:59:01;6.07;;;4.57;;
75071;SDS011;63651;55.728;38.022;2023-06-22T13:04:02;5.95;;;4.60;;
75071;SDS011;63651;55.728;38.022;2023-06-22T13:09:04;5.38;;;3.80;;
75071;SDS011;63651;55.728;38.022;2023-06-22T13:14:05;5.13;;;4.63;;
75071;SDS011;63651;55.728;38.022;2023-06-22T13:19:06;5.28;;;4.78;;
75071;SDS011;63651;55.728;38.022;2023-06-22T13:29:27;6.53;;;4.72;;
75071;SDS011;63651;55.728;38.022;2023-06-22T13:34:28;9.43;;;4.70;;
75071;SDS011;63651;55.728;38.022;2023-06-22T13:39:29;6.38;;;4.90;;
75071;SDS011;63651;55.728;38.022;2023-06-22T13:44:30;5.40;;;4.28;;
75071;SDS011;63651;55.728;38.022;2023-06-22T13:49:31;6.40;;;4.70;;
75071;SDS011;63651;55.728;38.022;2023-06-22T13:54:32;7.60;;;4.65;;
75071;SDS011;63651;55.728;38.022;2023-06-22T13:59:34;5.03;;;3.90;;
75071;SDS011;63651;55.728;38.022;2023-06-22T14:04:35;10.93;;;4.60;;
75071;SDS011;63651;55.728;38.022;2023-06-22T14:09:36;7.93;;;4.60;;
75071;SDS011;63651;55.728;38.022;2023-06-22T14:14:37;8.38;;;4.55;;
75071;SDS011;63651;55.728;38.022;2023-06-22T14:20:16;5.00;;;4.50;;
75071;SDS011;63651;55.728;38.022;2023-06-22T14:25:35;5.90;;;4.82;;
75071;SDS011;63651;55.728;38.022;2023-06-22T14:30:55;7.43;;;3.47;;
75071;SDS011;63651;55.728;38.022;2023-06-22T14:35:57;6.40;;;4.47;;
75071;SDS011;63651;55.728;38.022;2023-06-22T14:40:58;6.07;;;4.47;;
75071;SDS011;63651;55.728;38.022;2023-06-22T14:45:59;5.60;;;4.20;;
75071;SDS011;63651;55.728;38.022;2023-06-22T14:51:01;4.95;;;4.40;;
75071;SDS011;63651;55.728;38.022;2023-06-22T14:56:02;11.80;;;4.72;;
75071;SDS011;63651;55.728;38.022;2023-06-22T15:01:03;8.35;;;4.57;;
75071;SDS011;63651;55.728;38.022;2023-06-22T15:06:05;6.20;;;4.70;;
75071;SDS011;63651;55.728;38.022;2023-06-22T15:11:06;5.90;;;5.20;;
75071;SDS011;63651;55.728;38.022;2023-06-22T15:21:26;4.95;;;4.30;;
75071;SDS011;63651;55.728;38.022;2023-06-22T15:26:28;6.00;;;5.40;;
75071;SDS011;63651;55.728;38.022;2023-06-22T15:31:29;13.40;;;10.20;;
75071;SDS011;63651;55.728;38.022;2023-06-22T15:36:30;7.93;;;5.70;;
75071;SDS011;63651;55.728;38.022;2023-06-22T15:41:31;8.90;;;5.47;;
75071;SDS011;63651;55.728;38.022;2023-06-22T15:46:33;17.33;;;7.65;;
75071;SDS011;63651;55.728;38.022;2023-06-22T15:56:53;16.38;;;6.85;;
75071;SDS011;63651;55.728;38.022;2023-06-22T16:01:54;16.38;;;6.60;;
75071;SDS011;63651;55.728;38.022;2023-06-22T16:06:56;15.75;;;6.57;;
75071;SDS011;63651;55.728;38.022;2023-06-22T16:11:57;11.80;;;6.03;;
75071;SDS011;63651;55.728;38.022;2023-06-22T16:16:58;10.35;;;6.93;;
75071;SDS011;63651;55.728;38.022;2023-06-22T16:21:59;8.55;;;6.70;;
75071;SDS011;63651;55.728;38.022;2023-06-22T16:27:00;17.73;;;12.40;;
75071;SDS011;63651;55.728;38.022;2023-06-22T16:32:01;20.60;;;11.73;;
75071;SDS011;63651;55.728;38.022;2023-06-22T16:37:02;16.70;;;10.05;;
75071;SDS011;63651;55.728;38.022;2023-06-22T16:42:04;11.20;;;8.45;;
75071;SDS011;63651;55.728;38.022;2023-06-22T16:47:05;9.35;;;6.97;;
75071;SDS011;63651;55.728;38.022;2023-06-22T16:52:06;8.75;;;7.20;;
75071;SDS011;63651;55.728;38.022;2023-06-22T16:57:07;9.88;;;6.97;;
75071;SDS011;63651;55.728;38.022;2023-06-22T17:02:12;7.68;;;6.32;;
75071;SDS011;63651;55.728;38.022;2023-06-22T17:07:19;11.23;;;7.60;;
75071;SDS011;63651;55.728;38.022;2023-06-22T17:12:22;9.18;;;7.43;;
75071;SDS011;63651;55.728;38.022;2023-06-22T17:17:41;9.63;;;7.82;;
75071;SDS011;63651;55.728;38.022;2023-06-22T17:22:47;8.13;;;6.57;;
75071;SDS011;63651;55.728;38.022;2023-06-22T17:27:48;8.32;;;6.72;;
75071;SDS011;63651;55.728;38.022;2023-06-22T17:32:49;8.23;;;6.07;;
75071;SDS011;63651;55.728;38.022;2023-06-22T17:37:54;7.03;;;6.00;;
75071;SDS011;63651;55.728;38.022;2023-06-22T17:43:03;8.43;;;6.03;;
75071;SDS011;63651;55.728;38.022;2023-06-22T17:48:05;7.53;;;5.32;;
75071;SDS011;63651;55.728;38.022;2023-06-22T17:53:09;9.10;;;5.75;;
75071;SDS011;63651;55.728;38.022;2023-06-22T17:58:11;8.60;;;5.70;;
75071;SDS011;63651;55.728;38.022;2023-06-22T18:03:14;6.35;;;4.88;;
75071;SDS011;63651;55.728;38.022;2023-06-22T18:08:15;8.82;;;5.22;;
75071;SDS011;63651;55.728;38.022;2023-06-22T18:13:23;8.13;;;4.60;;
75071;SDS011;63651;55.728;38.022;2023-06-22T18:18:25;5.18;;;4.30;;
75071;SDS011;63651;55.728;38.022;2023-06-22T18:23:27;5.97;;;4.35;;
75071;SDS011;63651;55.728;38.022;2023-06-22T18:28:36;5.05;;;3.85;;
75071;SDS011;63651;55.728;38.022;2023-06-22T18:33:37;4.57;;;3.70;;
75071;SDS011;63651;55.728;38.022;2023-06-22T18:44:02;4.72;;;3.33;;
75071;SDS011;63651;55.728;38.022;2023-06-22T18:54:07;4.82;;;3.45;;
75071;SDS011;63651;55.728;38.022;2023-06-22T18:59:11;3.22;;;2.83;;
75071;SDS011;63651;55.728;38.022;2023-06-22T19:04:15;4.10;;;2.95;;
75071;SDS011;63651;55.728;38.022;2023-06-22T19:09:17;3.50;;;2.72;;
75071;SDS011;63651;55.728;38.022;2023-06-22T19:19:41;3.05;;;2.70;;
75071;SDS011;63651;55.728;38.022;2023-06-22T19:24:48;4.53;;;3.00;;
75071;SDS011;63651;55.728;38.022;2023-06-22T19:29:52;2.97;;;2.70;;
75071;SDS011;63651;55.728;38.022;2023-06-22T19:34:54;3.17;;;2.78;;
75071;SDS011;63651;55.728;38.022;2023-06-22T19:39:55;3.67;;;3.20;;
75071;SDS011;63651;55.728;38.022;2023-06-22T19:44:57;4.63;;;2.75;;
75071;SDS011;63651;55.728;38.022;2023-06-22T19:49:59;3.15;;;2.80;;
75071;SDS011;63651;55.728;38.022;2023-06-22T19:55:02;4.70;;;2.75;;
75071;SDS011;63651;55.728;38.022;2023-06-22T20:00:06;4.45;;;2.92;;
75071;SDS011;63651;55.728;38.022;2023-06-22T20:05:13;6.43;;;3.08;;
75071;SDS011;63651;55.728;38.022;2023-06-22T20:10:15;8.68;;;3.13;;
75071;SDS011;63651;55.728;38.022;2023-06-22T20:15:22;4.13;;;3.00;;
75071;SDS011;63651;55.728;38.022;2023-06-22T20:25:47;3.20;;;2.90;;
75071;SDS011;63651;55.728;38.022;2023-06-22T20:31:07;3.25;;;2.75;;
75071;SDS011;63651;55.728;38.022;2023-06-22T20:36:10;5.43;;;3.22;;
75071;SDS011;63651;55.728;38.022;2023-06-22T20:41:17;4.15;;;2.15;;
75071;SDS011;63651;55.728;38.022;2023-06-22T20:46:18;5.30;;;2.92;;
75071;SDS011;63651;55.728;38.022;2023-06-22T20:51:19;5.20;;;3.20;;
75071;SDS011;63651;55.728;38.022;2023-06-22T20:56:20;5.03;;;3.03;;
75071;SDS011;63651;55.728;38.022;2023-06-22T21:01:21;3.83;;;2.20;;
75071;SDS011;63651;55.728;38.022;2023-06-22T21:06:22;3.33;;;2.85;;
75071;SDS011;63651;55.728;38.022;2023-06-22T21:11:23;4.57;;;3.03;;
75071;SDS011;63651;55.728;38.022;2023-06-22T21:16:24;4.45;;;3.08;;
75071;SDS011;63651;55.728;38.022;2023-06-22T21:21:25;4.07;;;2.95;;
75071;SDS011;63651;55.728;38.022;2023-06-22T21:26:26;4.35;;;2.75;;
75071;SDS011;63651;55.728;38.022;2023-06-22T21:31:27;3.35;;;3.00;;
75071;SDS011;63651;55.728;38.022;2023-06-22T21:36:28;4.68;;;3.28;;
75071;SDS011;63651;55.728;38.022;2023-06-22T21:41:29;4.25;;;2.80;;
75071;SDS011;63651;55.728;38.022;2023-06-22T21:51:50;4.85;;;2.80;;
75071;SDS011;63651;55.728;38.022;2023-06-22T21:56:51;3.30;;;2.70;;
75071;SDS011;63651;55.728;38.022;2023-06-22T22:01:52;3.88;;;2.92;;
75071;SDS011;63651;55.728;38.022;2023-06-22T22:06:55;3.35;;;2.80;;
75071;SDS011;63651;55.728;38.022;2023-06-22T22:11:56;3.83;;;2.70;;
75071;SDS011;63651;55.728;38.022;2023-06-22T22:16:57;3.22;;;2.67;;
75071;SDS011;63651;55.728;38.022;2023-06-22T22:21:58;3.85;;;2.70;;
75071;SDS011;63651;55.728;38.022;2023-06-22T22:26:59;3.72;;;2.58;;
75071;SDS011;63651;55.728;38.022;2023-06-22T22:32:00;5.15;;;3.08;;
75071;SDS011;63651;55.728;38.022;2023-06-22T22:37:01;6.32;;;3.25;;
75071;SDS011;63651;55.728;38.022;2023-06-22T22:42:02;4.07;;;2.90;;
75071;SDS011;63651;55.728;38.022;2023-06-22T22:47:03;3.38;;;2.88;;
75071;SDS011;63651;55.728;38.022;2023-06-22T22:52:04;4.22;;;3.30;;
75071;SDS011;63651;55.728;38.022;2023-06-22T22:57:06;3.78;;;3.45;;
75071;SDS011;63651;55.728;38.022;2023-06-22T23:02:08;3.90;;;3.40;;
75071;SDS011;63651;55.728;38.022;2023-06-22T23:07:09;5.25;;;3.47;;
75071;SDS011;63651;55.728;38.022;2023-06-22T23:12:10;3.47;;;3.15;;
75071;SDS011;63651;55.728;38.022;2023-06-22T23:17:11;4.28;;;2.85;;
75071;SDS011;63651;55.728;38.022;2023-06-22T23:22:12;3.90;;;3.40;;
75071;SDS011;63651;55.728;38.022;2023-06-22T23:27:13;3.65;;;3.22;;
75071;SDS011;63651;55.728;38.022;2023-06-22T23:32:15;4.15;;;3.28;;
75071;SDS011;63651;55.728;38.022;2023-06-22T23:37:16;3.50;;;2.22;;
75071;SDS011;63651;55.728;38.022;2023-06-22T23:42:18;4.07;;;2.97;;
75071;SDS011;63651;55.728;38.022;2023-06-22T23:47:19;3.10;;;2.08;;
75071;SDS011;63651;55.728;38.022;2023-06-22T23:52:20;4.63;;;3.00;;
75071;SDS011;63651;55.728;38.022;2023-06-22T23:57:21;5.05;;;3.15;;
